sensor_id;sensor_type;location;lat;lon;timestamp;P1;durP1;ratioP1;P2;durP2;ratioP2
10277;SDS011;5184;51.376;7.148;2022-08-05T00:00:48;4.00;;;3.27;;
10277;SDS011;5184;51.376;7.148;2022-08-05T00:03:16;7.17;;;4.33;;
10277;SDS011;5184;51.376;7.148;2022-08-05T00:05:43;8.23;;;4.13;;
10277;SDS011;5184;51.376;7.148;2022-08-05T00:08:11;5.87;;;4.10;;
10277;SDS011;5184;51.376;7.148;2022-08-05T00:10:37;7.23;;;4.70;;
10277;SDS011;5184;51.376;7.148;2022-08-05T00:13:05;4.50;;;3.97;;
10277;SDS011;5184;51.376;7.148;2022-08-05T00:15:33;8.40;;;3.90;;
10277;SDS011;5184;51.376;7.148;2022-08-05T00:18:00;8.60;;;3.77;;
10277;SDS011;5184;51.376;7.148;2022-08-05T00:20:27;5.97;;;3.80;;
10277;SDS011;5184;51.376;7.148;2022-08-05T00:22:55;5.70;;;3.90;;
10277;SDS011;5184;51.376;7.148;2022-08-05T00:25:21;6.07;;;4.53;;
10277;SDS011;5184;51.376;7.148;2022-08-05T00:27:49;5.77;;;4.07;;
10277;SDS011;5184;51.376;7.148;2022-08-05T00:30:16;4.63;;;3.80;;
10277;SDS011;5184;51.376;7.148;2022-08-05T00:32:43;4.77;;;3.87;;
10277;SDS011;5184;51.376;7.148;2022-08-05T00:35:09;5.43;;;3.40;;
10277;SDS011;5184;51.376;7.148;2022-08-05T00:37:36;4.03;;;3.73;;
10277;SDS011;5184;51.376;7.148;2022-08-05T00:40:03;5.37;;;3.90;;
10277;SDS011;5184;51.376;7.148;2022-08-05T00:42:31;5.17;;;4.30;;
10277;SDS011;5184;51.376;7.148;2022-08-05T00:44:57;5.07;;;4.10;;
10277;SDS011;5184;51.376;7.148;2022-08-05T00:47:29;4.57;;;4.13;;
10277;SDS011;5184;51.376;7.148;2022-08-05T00:49:55;4.63;;;3.93;;
10277;SDS011;5184;51.376;7.148;2022-08-05T00:52:22;4.70;;;4.00;;
10277;SDS011;5184;51.376;7.148;2022-08-05T00:54:48;4.90;;;3.90;;
10277;SDS011;5184;51.376;7.148;2022-08-05T00:57:15;5.13;;;3.80;;
10277;SDS011;5184;51.376;7.148;2022-08-05T00:59:42;6.93;;;3.90;;
10277;SDS011;5184;51.376;7.148;2022-08-05T01:02:10;5.27;;;4.50;;
10277;SDS011;5184;51.376;7.148;2022-08-05T01:04:37;5.53;;;4.20;;
10277;SDS011;5184;51.376;7.148;2022-08-05T01:07:04;6.90;;;4.33;;
10277;SDS011;5184;51.376;7.148;2022-08-05T01:09:30;4.77;;;4.10;;
10277;SDS011;5184;51.376;7.148;2022-08-05T01:11:58;6.20;;;4.17;;
10277;SDS011;5184;51.376;7.148;2022-08-05T01:14:27;4.70;;;4.30;;
10277;SDS011;5184;51.376;7.148;2022-08-05T01:16:58;6.80;;;4.40;;
10277;SDS011;5184;51.376;7.148;2022-08-05T01:19:29;4.57;;;3.60;;
10277;SDS011;5184;51.376;7.148;2022-08-05T01:22:02;5.60;;;4.00;;
10277;SDS011;5184;51.376;7.148;2022-08-05T01:24:31;5.37;;;4.70;;
10277;SDS011;5184;51.376;7.148;2022-08-05T01:29:33;5.10;;;3.93;;
10277;SDS011;5184;51.376;7.148;2022-08-05T01:32:02;5.80;;;4.57;;
10277;SDS011;5184;51.376;7.148;2022-08-05T01:34:30;7.10;;;4.60;;
10277;SDS011;5184;51.376;7.148;2022-08-05T01:37:01;8.13;;;4.47;;
10277;SDS011;5184;51.376;7.148;2022-08-05T01:39:25;5.60;;;4.23;;
10277;SDS011;5184;51.376;7.148;2022-08-05T01:41:52;5.10;;;4.50;;
10277;SDS011;5184;51.376;7.148;2022-08-05T01:44:19;7.47;;;4.93;;
10277;SDS011;5184;51.376;7.148;2022-08-05T01:46:47;7.90;;;4.97;;
10277;SDS011;5184;51.376;7.148;2022-08-05T01:49:16;6.23;;;4.60;;
10277;SDS011;5184;51.376;7.148;2022-08-05T01:51:41;5.93;;;4.60;;
10277;SDS011;5184;51.376;7.148;2022-08-05T01:54:07;6.83;;;5.17;;
10277;SDS011;5184;51.376;7.148;2022-08-05T01:56:35;6.87;;;4.97;;
10277;SDS011;5184;51.376;7.148;2022-08-05T01:59:02;5.30;;;4.50;;
10277;SDS011;5184;51.376;7.148;2022-08-05T02:01:29;7.03;;;5.23;;
10277;SDS011;5184;51.376;7.148;2022-08-05T02:03:56;6.23;;;4.97;;
10277;SDS011;5184;51.376;7.148;2022-08-05T02:06:23;6.23;;;5.13;;
10277;SDS011;5184;51.376;7.148;2022-08-05T02:08:51;8.57;;;5.43;;
10277;SDS011;5184;51.376;7.148;2022-08-05T02:11:17;7.90;;;5.23;;
10277;SDS011;5184;51.376;7.148;2022-08-05T02:16:33;6.23;;;4.73;;
10277;SDS011;5184;51.376;7.148;2022-08-05T02:19:02;5.50;;;4.20;;
10277;SDS011;5184;51.376;7.148;2022-08-05T02:21:28;5.10;;;4.13;;
10277;SDS011;5184;51.376;7.148;2022-08-05T02:23:54;6.70;;;4.20;;
10277;SDS011;5184;51.376;7.148;2022-08-05T02:26:34;7.40;;;5.67;;
10277;SDS011;5184;51.376;7.148;2022-08-05T02:28:50;8.97;;;5.53;;
10277;SDS011;5184;51.376;7.148;2022-08-05T02:31:18;6.43;;;5.20;;
10277;SDS011;5184;51.376;7.148;2022-08-05T02:33:46;6.57;;;4.80;;
10277;SDS011;5184;51.376;7.148;2022-08-05T02:36:12;6.50;;;4.90;;
10277;SDS011;5184;51.376;7.148;2022-08-05T02:38:38;7.83;;;5.53;;
10277;SDS011;5184;51.376;7.148;2022-08-05T02:41:05;6.13;;;5.03;;
10277;SDS011;5184;51.376;7.148;2022-08-05T02:43:31;8.93;;;5.77;;
10277;SDS011;5184;51.376;7.148;2022-08-05T02:45:58;7.77;;;6.03;;
10277;SDS011;5184;51.376;7.148;2022-08-05T02:48:25;7.93;;;5.63;;
10277;SDS011;5184;51.376;7.148;2022-08-05T02:50:52;7.03;;;5.40;;
10277;SDS011;5184;51.376;7.148;2022-08-05T02:53:20;6.40;;;5.80;;
10277;SDS011;5184;51.376;7.148;2022-08-05T02:55:47;7.93;;;5.77;;
10277;SDS011;5184;51.376;7.148;2022-08-05T02:58:14;7.37;;;5.70;;
10277;SDS011;5184;51.376;7.148;2022-08-05T03:00:40;8.80;;;6.33;;
10277;SDS011;5184;51.376;7.148;2022-08-05T03:03:08;10.13;;;6.33;;
10277;SDS011;5184;51.376;7.148;2022-08-05T03:05:34;8.43;;;6.53;;
10277;SDS011;5184;51.376;7.148;2022-08-05T03:08:02;7.77;;;6.97;;
10277;SDS011;5184;51.376;7.148;2022-08-05T03:10:29;8.53;;;6.53;;
10277;SDS011;5184;51.376;7.148;2022-08-05T03:12:57;7.90;;;6.77;;
10277;SDS011;5184;51.376;7.148;2022-08-05T03:15:24;10.70;;;6.93;;
10277;SDS011;5184;51.376;7.148;2022-08-05T03:17:52;9.77;;;6.70;;
10277;SDS011;5184;51.376;7.148;2022-08-05T03:20:19;9.40;;;6.60;;
10277;SDS011;5184;51.376;7.148;2022-08-05T03:22:46;10.17;;;6.30;;
10277;SDS011;5184;51.376;7.148;2022-08-05T03:25:13;12.37;;;8.23;;
10277;SDS011;5184;51.376;7.148;2022-08-05T03:27:39;12.40;;;8.20;;
10277;SDS011;5184;51.376;7.148;2022-08-05T03:30:06;11.07;;;8.13;;
10277;SDS011;5184;51.376;7.148;2022-08-05T03:32:34;10.17;;;7.53;;
10277;SDS011;5184;51.376;7.148;2022-08-05T03:35:00;10.23;;;7.43;;
10277;SDS011;5184;51.376;7.148;2022-08-05T03:37:27;10.60;;;8.60;;
10277;SDS011;5184;51.376;7.148;2022-08-05T03:39:55;11.93;;;8.60;;
10277;SDS011;5184;51.376;7.148;2022-08-05T03:42:22;10.57;;;8.70;;
10277;SDS011;5184;51.376;7.148;2022-08-05T03:44:50;9.90;;;8.90;;
10277;SDS011;5184;51.376;7.148;2022-08-05T03:47:16;10.63;;;8.20;;
10277;SDS011;5184;51.376;7.148;2022-08-05T03:49:43;10.23;;;8.57;;
10277;SDS011;5184;51.376;7.148;2022-08-05T03:52:10;9.83;;;8.83;;
10277;SDS011;5184;51.376;7.148;2022-08-05T03:54:39;12.03;;;9.47;;
10277;SDS011;5184;51.376;7.148;2022-08-05T03:57:08;12.77;;;9.43;;
10277;SDS011;5184;51.376;7.148;2022-08-05T03:59:38;10.27;;;8.17;;
10277;SDS011;5184;51.376;7.148;2022-08-05T04:02:03;8.20;;;7.40;;
10277;SDS011;5184;51.376;7.148;2022-08-05T04:04:29;11.33;;;8.10;;
10277;SDS011;5184;51.376;7.148;2022-08-05T04:06:56;9.33;;;8.37;;
10277;SDS011;5184;51.376;7.148;2022-08-05T04:09:23;10.07;;;7.67;;
10277;SDS011;5184;51.376;7.148;2022-08-05T04:11:50;10.13;;;7.93;;
10277;SDS011;5184;51.376;7.148;2022-08-05T04:14:17;11.77;;;8.27;;
10277;SDS011;5184;51.376;7.148;2022-08-05T04:16:43;8.83;;;7.90;;
10277;SDS011;5184;51.376;7.148;2022-08-05T04:19:11;11.83;;;8.90;;
10277;SDS011;5184;51.376;7.148;2022-08-05T04:21:38;9.77;;;8.77;;
10277;SDS011;5184;51.376;7.148;2022-08-05T04:24:05;9.83;;;7.87;;
10277;SDS011;5184;51.376;7.148;2022-08-05T04:26:31;11.70;;;9.77;;
10277;SDS011;5184;51.376;7.148;2022-08-05T04:28:59;9.60;;;8.57;;
10277;SDS011;5184;51.376;7.148;2022-08-05T04:31:26;9.77;;;8.77;;
10277;SDS011;5184;51.376;7.148;2022-08-05T04:33:52;9.60;;;8.60;;
10277;SDS011;5184;51.376;7.148;2022-08-05T04:36:19;12.77;;;9.40;;
10277;SDS011;5184;51.376;7.148;2022-08-05T04:38:46;12.60;;;10.43;;
10277;SDS011;5184;51.376;7.148;2022-08-05T04:41:13;11.83;;;9.57;;
10277;SDS011;5184;51.376;7.148;2022-08-05T04:43:40;12.40;;;10.10;;
10277;SDS011;5184;51.376;7.148;2022-08-05T04:46:07;12.20;;;10.13;;
10277;SDS011;5184;51.376;7.148;2022-08-05T04:48:34;11.07;;;9.97;;
10277;SDS011;5184;51.376;7.148;2022-08-05T04:51:00;12.80;;;11.47;;
10277;SDS011;5184;51.376;7.148;2022-08-05T04:53:28;14.90;;;13.17;;
10277;SDS011;5184;51.376;7.148;2022-08-05T04:55:55;13.87;;;12.47;;
10277;SDS011;5184;51.376;7.148;2022-08-05T04:58:21;16.07;;;14.30;;
10277;SDS011;5184;51.376;7.148;2022-08-05T05:00:49;14.40;;;12.93;;
10277;SDS011;5184;51.376;7.148;2022-08-05T05:03:16;15.23;;;13.63;;
10277;SDS011;5184;51.376;7.148;2022-08-05T05:05:43;17.63;;;15.53;;
10277;SDS011;5184;51.376;7.148;2022-08-05T05:08:10;19.23;;;15.50;;
10277;SDS011;5184;51.376;7.148;2022-08-05T05:10:38;20.03;;;16.30;;
10277;SDS011;5184;51.376;7.148;2022-08-05T05:13:05;20.70;;;16.63;;
10277;SDS011;5184;51.376;7.148;2022-08-05T05:15:32;21.77;;;17.43;;
10277;SDS011;5184;51.376;7.148;2022-08-05T05:17:58;21.87;;;18.97;;
10277;SDS011;5184;51.376;7.148;2022-08-05T05:20:25;22.97;;;20.67;;
10277;SDS011;5184;51.376;7.148;2022-08-05T05:22:51;24.77;;;20.90;;
10277;SDS011;5184;51.376;7.148;2022-08-05T05:25:18;23.53;;;21.10;;
10277;SDS011;5184;51.376;7.148;2022-08-05T05:27:45;24.10;;;21.63;;
10277;SDS011;5184;51.376;7.148;2022-08-05T05:30:12;27.20;;;24.17;;
10277;SDS011;5184;51.376;7.148;2022-08-05T05:32:39;28.67;;;25.67;;
10277;SDS011;5184;51.376;7.148;2022-08-05T05:35:06;29.07;;;25.80;;
10277;SDS011;5184;51.376;7.148;2022-08-05T05:37:33;28.40;;;25.53;;
10277;SDS011;5184;51.376;7.148;2022-08-05T05:40:01;29.10;;;24.33;;
10277;SDS011;5184;51.376;7.148;2022-08-05T05:42:28;29.03;;;25.90;;
10277;SDS011;5184;51.376;7.148;2022-08-05T05:44:56;28.87;;;25.83;;
10277;SDS011;5184;51.376;7.148;2022-08-05T05:47:23;28.37;;;25.57;;
10277;SDS011;5184;51.376;7.148;2022-08-05T05:49:50;26.47;;;23.60;;
10277;SDS011;5184;51.376;7.148;2022-08-05T05:52:16;28.30;;;25.37;;
10277;SDS011;5184;51.376;7.148;2022-08-05T05:54:43;32.20;;;28.90;;
10277;SDS011;5184;51.376;7.148;2022-08-05T05:57:10;33.00;;;28.80;;
10277;SDS011;5184;51.376;7.148;2022-08-05T05:59:37;33.60;;;29.90;;
10277;SDS011;5184;51.376;7.148;2022-08-05T06:02:03;34.53;;;30.50;;
10277;SDS011;5184;51.376;7.148;2022-08-05T06:04:30;34.93;;;28.67;;
10277;SDS011;5184;51.376;7.148;2022-08-05T06:06:57;32.70;;;29.30;;
10277;SDS011;5184;51.376;7.148;2022-08-05T06:09:24;32.27;;;28.93;;
10277;SDS011;5184;51.376;7.148;2022-08-05T06:11:51;31.67;;;28.13;;
10277;SDS011;5184;51.376;7.148;2022-08-05T06:14:17;29.00;;;26.00;;
10277;SDS011;5184;51.376;7.148;2022-08-05T06:16:44;31.43;;;28.23;;
10277;SDS011;5184;51.376;7.148;2022-08-05T06:19:12;31.80;;;28.40;;
10277;SDS011;5184;51.376;7.148;2022-08-05T06:21:38;29.37;;;26.47;;
10277;SDS011;5184;51.376;7.148;2022-08-05T06:24:05;28.03;;;25.13;;
10277;SDS011;5184;51.376;7.148;2022-08-05T06:26:32;26.43;;;23.83;;
10277;SDS011;5184;51.376;7.148;2022-08-05T06:28:59;23.67;;;21.27;;
10277;SDS011;5184;51.376;7.148;2022-08-05T06:31:26;22.07;;;19.77;;
10277;SDS011;5184;51.376;7.148;2022-08-05T06:33:52;19.83;;;17.87;;
10277;SDS011;5184;51.376;7.148;2022-08-05T06:36:20;17.20;;;15.43;;
10277;SDS011;5184;51.376;7.148;2022-08-05T06:38:47;23.17;;;20.87;;
10277;SDS011;5184;51.376;7.148;2022-08-05T06:41:14;22.57;;;20.37;;
10277;SDS011;5184;51.376;7.148;2022-08-05T06:43:40;21.10;;;19.00;;
10277;SDS011;5184;51.376;7.148;2022-08-05T06:46:07;20.27;;;18.23;;
10277;SDS011;5184;51.376;7.148;2022-08-05T06:48:34;22.20;;;19.87;;
10277;SDS011;5184;51.376;7.148;2022-08-05T06:51:02;25.07;;;20.23;;
10277;SDS011;5184;51.376;7.148;2022-08-05T06:53:27;24.97;;;20.77;;
10277;SDS011;5184;51.376;7.148;2022-08-05T06:55:56;24.33;;;21.77;;
10277;SDS011;5184;51.376;7.148;2022-08-05T06:58:21;26.50;;;23.07;;
10277;SDS011;5184;51.376;7.148;2022-08-05T07:00:48;30.10;;;24.33;;
10277;SDS011;5184;51.376;7.148;2022-08-05T07:03:15;39.47;;;27.67;;
10277;SDS011;5184;51.376;7.148;2022-08-05T07:05:41;34.37;;;28.00;;
10277;SDS011;5184;51.376;7.148;2022-08-05T07:08:09;35.90;;;29.17;;
10277;SDS011;5184;51.376;7.148;2022-08-05T07:10:35;35.53;;;29.17;;
10277;SDS011;5184;51.376;7.148;2022-08-05T07:13:02;37.00;;;27.80;;
10277;SDS011;5184;51.376;7.148;2022-08-05T07:15:34;38.00;;;27.80;;
10277;SDS011;5184;51.376;7.148;2022-08-05T07:18:06;34.63;;;27.70;;
10277;SDS011;5184;51.376;7.148;2022-08-05T07:20:34;34.10;;;26.60;;
10277;SDS011;5184;51.376;7.148;2022-08-05T07:23:01;30.07;;;23.77;;
10277;SDS011;5184;51.376;7.148;2022-08-05T07:25:28;30.83;;;23.03;;
10277;SDS011;5184;51.376;7.148;2022-08-05T07:27:54;26.07;;;22.53;;
10277;SDS011;5184;51.376;7.148;2022-08-05T07:30:21;30.13;;;22.17;;
10277;SDS011;5184;51.376;7.148;2022-08-05T07:32:48;27.50;;;22.33;;
10277;SDS011;5184;51.376;7.148;2022-08-05T07:35:16;27.47;;;22.00;;
10277;SDS011;5184;51.376;7.148;2022-08-05T07:37:42;25.57;;;20.60;;
10277;SDS011;5184;51.376;7.148;2022-08-05T07:40:10;25.37;;;22.40;;
10277;SDS011;5184;51.376;7.148;2022-08-05T07:42:37;26.40;;;23.57;;
10277;SDS011;5184;51.376;7.148;2022-08-05T07:45:05;25.77;;;23.07;;
10277;SDS011;5184;51.376;7.148;2022-08-05T07:47:33;26.10;;;22.93;;
10277;SDS011;5184;51.376;7.148;2022-08-05T07:49:59;26.37;;;23.63;;
10277;SDS011;5184;51.376;7.148;2022-08-05T07:52:26;26.57;;;23.43;;
10277;SDS011;5184;51.376;7.148;2022-08-05T07:54:53;24.80;;;22.23;;
10277;SDS011;5184;51.376;7.148;2022-08-05T07:57:19;24.53;;;21.93;;
10277;SDS011;5184;51.376;7.148;2022-08-05T07:59:46;24.57;;;22.00;;
10277;SDS011;5184;51.376;7.148;2022-08-05T08:02:13;23.00;;;20.37;;
10277;SDS011;5184;51.376;7.148;2022-08-05T08:04:40;23.13;;;20.73;;
10277;SDS011;5184;51.376;7.148;2022-08-05T08:07:07;22.93;;;20.30;;
10277;SDS011;5184;51.376;7.148;2022-08-05T08:09:34;24.97;;;20.17;;
10277;SDS011;5184;51.376;7.148;2022-08-05T08:12:00;22.07;;;19.87;;
10277;SDS011;5184;51.376;7.148;2022-08-05T08:14:28;22.00;;;19.83;;
10277;SDS011;5184;51.376;7.148;2022-08-05T08:16:54;21.73;;;19.20;;
10277;SDS011;5184;51.376;7.148;2022-08-05T08:19:21;21.13;;;16.60;;
10277;SDS011;5184;51.376;7.148;2022-08-05T08:21:47;19.33;;;15.90;;
10277;SDS011;5184;51.376;7.148;2022-08-05T08:24:15;18.30;;;15.53;;
10277;SDS011;5184;51.376;7.148;2022-08-05T08:26:42;18.53;;;15.20;;
10277;SDS011;5184;51.376;7.148;2022-08-05T08:29:09;18.13;;;15.07;;
10277;SDS011;5184;51.376;7.148;2022-08-05T08:31:35;17.47;;;14.57;;
10277;SDS011;5184;51.376;7.148;2022-08-05T08:34:02;19.23;;;14.43;;
10277;SDS011;5184;51.376;7.148;2022-08-05T08:36:29;18.63;;;15.30;;
10277;SDS011;5184;51.376;7.148;2022-08-05T08:38:55;17.83;;;15.30;;
10277;SDS011;5184;51.376;7.148;2022-08-05T08:41:22;17.67;;;13.57;;
10277;SDS011;5184;51.376;7.148;2022-08-05T08:43:48;18.63;;;14.30;;
10277;SDS011;5184;51.376;7.148;2022-08-05T08:46:15;13.97;;;12.53;;
10277;SDS011;5184;51.376;7.148;2022-08-05T08:48:43;14.87;;;12.73;;
10277;SDS011;5184;51.376;7.148;2022-08-05T08:51:10;12.77;;;10.20;;
10277;SDS011;5184;51.376;7.148;2022-08-05T08:53:37;12.33;;;9.50;;
10277;SDS011;5184;51.376;7.148;2022-08-05T08:56:04;11.73;;;9.57;;
10277;SDS011;5184;51.376;7.148;2022-08-05T08:58:31;12.60;;;10.30;;
10277;SDS011;5184;51.376;7.148;2022-08-05T09:00:58;13.43;;;10.40;;
10277;SDS011;5184;51.376;7.148;2022-08-05T09:03:24;13.93;;;10.70;;
10277;SDS011;5184;51.376;7.148;2022-08-05T09:05:51;12.63;;;10.93;;
10277;SDS011;5184;51.376;7.148;2022-08-05T09:08:18;15.47;;;9.77;;
10277;SDS011;5184;51.376;7.148;2022-08-05T09:10:45;11.73;;;9.13;;
10277;SDS011;5184;51.376;7.148;2022-08-05T09:13:13;12.67;;;9.57;;
10277;SDS011;5184;51.376;7.148;2022-08-05T09:15:39;10.73;;;9.27;;
10277;SDS011;5184;51.376;7.148;2022-08-05T09:18:06;15.37;;;9.80;;
10277;SDS011;5184;51.376;7.148;2022-08-05T09:20:33;9.43;;;7.83;;
10277;SDS011;5184;51.376;7.148;2022-08-05T09:23:03;10.27;;;7.70;;
10277;SDS011;5184;51.376;7.148;2022-08-05T09:25:32;9.77;;;7.90;;
10277;SDS011;5184;51.376;7.148;2022-08-05T09:30:35;9.83;;;7.27;;
10277;SDS011;5184;51.376;7.148;2022-08-05T09:33:02;8.17;;;6.33;;
10277;SDS011;5184;51.376;7.148;2022-08-05T09:35:29;8.87;;;6.77;;
10277;SDS011;5184;51.376;7.148;2022-08-05T09:37:56;8.73;;;6.80;;
10277;SDS011;5184;51.376;7.148;2022-08-05T09:40:28;10.27;;;7.03;;
10277;SDS011;5184;51.376;7.148;2022-08-05T09:42:55;10.17;;;6.97;;
10277;SDS011;5184;51.376;7.148;2022-08-05T09:45:33;9.00;;;7.47;;
10277;SDS011;5184;51.376;7.148;2022-08-05T09:47:48;9.27;;;6.97;;
10277;SDS011;5184;51.376;7.148;2022-08-05T09:50:18;9.87;;;7.33;;
10277;SDS011;5184;51.376;7.148;2022-08-05T09:52:42;10.30;;;7.00;;
10277;SDS011;5184;51.376;7.148;2022-08-05T09:55:10;8.07;;;6.47;;
10277;SDS011;5184;51.376;7.148;2022-08-05T09:57:38;10.80;;;7.67;;
10277;SDS011;5184;51.376;7.148;2022-08-05T10:00:06;11.37;;;7.53;;
10277;SDS011;5184;51.376;7.148;2022-08-05T10:02:42;9.07;;;8.07;;
10277;SDS011;5184;51.376;7.148;2022-08-05T10:05:12;9.87;;;7.57;;
10277;SDS011;5184;51.376;7.148;2022-08-05T10:07:47;7.63;;;6.73;;
10277;SDS011;5184;51.376;7.148;2022-08-05T10:10:19;8.13;;;7.00;;
10277;SDS011;5184;51.376;7.148;2022-08-05T10:12:45;9.80;;;8.07;;
10277;SDS011;5184;51.376;7.148;2022-08-05T10:15:14;9.97;;;7.73;;
10277;SDS011;5184;51.376;7.148;2022-08-05T10:17:40;7.97;;;7.27;;
10277;SDS011;5184;51.376;7.148;2022-08-05T10:20:08;11.50;;;7.17;;
10277;SDS011;5184;51.376;7.148;2022-08-05T10:22:34;11.57;;;7.83;;
10277;SDS011;5184;51.376;7.148;2022-08-05T10:25:02;12.47;;;7.87;;
10277;SDS011;5184;51.376;7.148;2022-08-05T10:27:29;11.33;;;7.70;;
10277;SDS011;5184;51.376;7.148;2022-08-05T10:29:56;8.27;;;7.47;;
10277;SDS011;5184;51.376;7.148;2022-08-05T10:32:24;8.73;;;6.67;;
10277;SDS011;5184;51.376;7.148;2022-08-05T10:34:51;7.90;;;6.50;;
10277;SDS011;5184;51.376;7.148;2022-08-05T10:37:18;7.37;;;5.90;;
10277;SDS011;5184;51.376;7.148;2022-08-05T10:39:44;11.03;;;6.87;;
10277;SDS011;5184;51.376;7.148;2022-08-05T10:42:12;8.93;;;6.50;;
10277;SDS011;5184;51.376;7.148;2022-08-05T10:44:38;11.87;;;7.50;;
10277;SDS011;5184;51.376;7.148;2022-08-05T10:47:10;7.67;;;6.97;;
10277;SDS011;5184;51.376;7.148;2022-08-05T10:49:40;9.67;;;7.17;;
10277;SDS011;5184;51.376;7.148;2022-08-05T10:52:02;8.80;;;6.37;;
10277;SDS011;5184;51.376;7.148;2022-08-05T10:57:10;6.87;;;6.07;;
10277;SDS011;5184;51.376;7.148;2022-08-05T10:59:35;8.80;;;6.27;;
10277;SDS011;5184;51.376;7.148;2022-08-05T11:02:06;8.40;;;5.60;;
10277;SDS011;5184;51.376;7.148;2022-08-05T11:04:43;6.07;;;4.63;;
10277;SDS011;5184;51.376;7.148;2022-08-05T11:07:10;6.33;;;4.30;;
10277;SDS011;5184;51.376;7.148;2022-08-05T11:09:45;4.60;;;4.10;;
10277;SDS011;5184;51.376;7.148;2022-08-05T11:15:17;7.93;;;4.40;;
10277;SDS011;5184;51.376;7.148;2022-08-05T11:17:46;4.37;;;3.97;;
10277;SDS011;5184;51.376;7.148;2022-08-05T11:22:50;6.53;;;4.30;;
10277;SDS011;5184;51.376;7.148;2022-08-05T11:27:53;8.40;;;4.27;;
10277;SDS011;5184;51.376;7.148;2022-08-05T11:30:20;6.17;;;5.20;;
10277;SDS011;5184;51.376;7.148;2022-08-05T11:32:47;5.93;;;4.20;;
10277;SDS011;5184;51.376;7.148;2022-08-05T11:38:00;10.43;;;4.33;;
10277;SDS011;5184;51.376;7.148;2022-08-05T11:41:00;5.70;;;3.43;;
10277;SDS011;5184;51.376;7.148;2022-08-05T11:43:19;3.80;;;3.50;;
10277;SDS011;5184;51.376;7.148;2022-08-05T11:45:45;4.80;;;4.20;;
10277;SDS011;5184;51.376;7.148;2022-08-05T11:48:11;5.37;;;4.00;;
10277;SDS011;5184;51.376;7.148;2022-08-05T11:50:38;4.43;;;3.53;;
10277;SDS011;5184;51.376;7.148;2022-08-05T11:53:04;5.70;;;3.70;;
10277;SDS011;5184;51.376;7.148;2022-08-05T11:55:31;5.43;;;3.33;;
10277;SDS011;5184;51.376;7.148;2022-08-05T11:57:58;5.90;;;3.77;;
10277;SDS011;5184;51.376;7.148;2022-08-05T12:00:26;3.40;;;3.10;;
10277;SDS011;5184;51.376;7.148;2022-08-05T12:02:54;4.53;;;3.67;;
10277;SDS011;5184;51.376;7.148;2022-08-05T12:05:26;5.20;;;3.47;;
10277;SDS011;5184;51.376;7.148;2022-08-05T12:07:55;4.17;;;3.77;;
10277;SDS011;5184;51.376;7.148;2022-08-05T12:10:18;5.23;;;3.53;;
10277;SDS011;5184;51.376;7.148;2022-08-05T12:12:45;7.77;;;4.20;;
10277;SDS011;5184;51.376;7.148;2022-08-05T12:15:19;6.17;;;3.97;;
10277;SDS011;5184;51.376;7.148;2022-08-05T12:17:45;6.30;;;3.90;;
10277;SDS011;5184;51.376;7.148;2022-08-05T12:20:12;5.13;;;3.57;;
10277;SDS011;5184;51.376;7.148;2022-08-05T12:22:38;4.00;;;3.57;;
10277;SDS011;5184;51.376;7.148;2022-08-05T12:25:05;6.70;;;3.70;;
10277;SDS011;5184;51.376;7.148;2022-08-05T12:27:32;7.40;;;3.93;;
10277;SDS011;5184;51.376;7.148;2022-08-05T12:30:00;6.10;;;3.87;;
10277;SDS011;5184;51.376;7.148;2022-08-05T12:32:26;4.17;;;3.87;;
10277;SDS011;5184;51.376;7.148;2022-08-05T12:34:54;5.23;;;3.70;;
10277;SDS011;5184;51.376;7.148;2022-08-05T12:37:22;5.43;;;3.80;;
10277;SDS011;5184;51.376;7.148;2022-08-05T12:39:49;4.60;;;3.90;;
10277;SDS011;5184;51.376;7.148;2022-08-05T12:42:16;5.97;;;4.10;;
10277;SDS011;5184;51.376;7.148;2022-08-05T12:44:42;5.30;;;4.20;;
10277;SDS011;5184;51.376;7.148;2022-08-05T12:47:09;6.40;;;4.17;;
10277;SDS011;5184;51.376;7.148;2022-08-05T12:49:43;4.83;;;4.10;;
10277;SDS011;5184;51.376;7.148;2022-08-05T12:52:11;5.30;;;4.30;;
10277;SDS011;5184;51.376;7.148;2022-08-05T12:54:38;4.73;;;4.23;;
10277;SDS011;5184;51.376;7.148;2022-08-05T12:57:06;5.77;;;4.63;;
10277;SDS011;5184;51.376;7.148;2022-08-05T12:59:34;5.47;;;4.43;;
10277;SDS011;5184;51.376;7.148;2022-08-05T13:02:05;6.27;;;4.93;;
10277;SDS011;5184;51.376;7.148;2022-08-05T13:04:33;5.63;;;5.13;;
10277;SDS011;5184;51.376;7.148;2022-08-05T13:07:02;5.37;;;4.57;;
10277;SDS011;5184;51.376;7.148;2022-08-05T13:09:27;5.63;;;4.77;;
10277;SDS011;5184;51.376;7.148;2022-08-05T13:12:00;5.17;;;4.60;;
10277;SDS011;5184;51.376;7.148;2022-08-05T13:14:27;6.57;;;4.57;;
10277;SDS011;5184;51.376;7.148;2022-08-05T13:16:55;5.73;;;5.00;;
10277;SDS011;5184;51.376;7.148;2022-08-05T13:19:21;6.00;;;5.50;;
10277;SDS011;5184;51.376;7.148;2022-08-05T13:21:47;6.33;;;4.97;;
10277;SDS011;5184;51.376;7.148;2022-08-05T13:24:14;4.60;;;4.30;;
10277;SDS011;5184;51.376;7.148;2022-08-05T13:26:42;5.70;;;4.83;;
10277;SDS011;5184;51.376;7.148;2022-08-05T13:29:09;6.03;;;4.20;;
10277;SDS011;5184;51.376;7.148;2022-08-05T13:31:36;5.60;;;4.60;;
10277;SDS011;5184;51.376;7.148;2022-08-05T13:34:04;5.97;;;4.93;;
10277;SDS011;5184;51.376;7.148;2022-08-05T13:36:31;6.10;;;5.00;;
10277;SDS011;5184;51.376;7.148;2022-08-05T13:38:59;5.77;;;4.90;;
10277;SDS011;5184;51.376;7.148;2022-08-05T13:41:25;4.80;;;4.30;;
10277;SDS011;5184;51.376;7.148;2022-08-05T13:43:52;6.30;;;5.10;;
10277;SDS011;5184;51.376;7.148;2022-08-05T13:46:18;5.50;;;4.83;;
10277;SDS011;5184;51.376;7.148;2022-08-05T13:48:46;4.67;;;4.17;;
10277;SDS011;5184;51.376;7.148;2022-08-05T13:51:13;6.27;;;4.90;;
10277;SDS011;5184;51.376;7.148;2022-08-05T13:53:41;5.67;;;4.70;;
10277;SDS011;5184;51.376;7.148;2022-08-05T13:56:07;4.10;;;3.70;;
10277;SDS011;5184;51.376;7.148;2022-08-05T13:58:34;7.43;;;4.30;;
10277;SDS011;5184;51.376;7.148;2022-08-05T14:01:01;4.17;;;3.77;;
10277;SDS011;5184;51.376;7.148;2022-08-05T14:03:28;4.43;;;3.80;;
10277;SDS011;5184;51.376;7.148;2022-08-05T14:05:55;3.73;;;3.33;;
10277;SDS011;5184;51.376;7.148;2022-08-05T14:08:21;3.37;;;3.03;;
10277;SDS011;5184;51.376;7.148;2022-08-05T14:10:48;3.67;;;2.33;;
10277;SDS011;5184;51.376;7.148;2022-08-05T14:13:15;3.43;;;2.40;;
10277;SDS011;5184;51.376;7.148;2022-08-05T14:15:41;3.30;;;2.30;;
10277;SDS011;5184;51.376;7.148;2022-08-05T14:18:09;4.00;;;2.30;;
10277;SDS011;5184;51.376;7.148;2022-08-05T14:20:36;3.83;;;2.50;;
10277;SDS011;5184;51.376;7.148;2022-08-05T14:23:03;4.23;;;2.40;;
10277;SDS011;5184;51.376;7.148;2022-08-05T14:25:30;4.20;;;2.17;;
10277;SDS011;5184;51.376;7.148;2022-08-05T14:27:57;3.17;;;2.40;;
10277;SDS011;5184;51.376;7.148;2022-08-05T14:30:23;2.37;;;2.17;;
10277;SDS011;5184;51.376;7.148;2022-08-05T14:32:50;2.40;;;2.20;;
10277;SDS011;5184;51.376;7.148;2022-08-05T14:35:16;2.50;;;1.80;;
10277;SDS011;5184;51.376;7.148;2022-08-05T14:37:43;3.63;;;1.70;;
10277;SDS011;5184;51.376;7.148;2022-08-05T14:40:10;3.00;;;1.80;;
10277;SDS011;5184;51.376;7.148;2022-08-05T14:42:37;2.47;;;1.80;;
10277;SDS011;5184;51.376;7.148;2022-08-05T14:45:04;2.10;;;1.80;;
10277;SDS011;5184;51.376;7.148;2022-08-05T14:47:31;2.83;;;1.80;;
10277;SDS011;5184;51.376;7.148;2022-08-05T14:49:58;4.43;;;2.00;;
10277;SDS011;5184;51.376;7.148;2022-08-05T14:52:26;3.23;;;1.70;;
10277;SDS011;5184;51.376;7.148;2022-08-05T14:54:52;2.40;;;1.80;;
10277;SDS011;5184;51.376;7.148;2022-08-05T14:57:19;15.97;;;2.93;;
10277;SDS011;5184;51.376;7.148;2022-08-05T14:59:45;2.57;;;1.80;;
10277;SDS011;5184;51.376;7.148;2022-08-05T15:02:12;2.30;;;1.57;;
10277;SDS011;5184;51.376;7.148;2022-08-05T15:04:39;4.40;;;1.60;;
10277;SDS011;5184;51.376;7.148;2022-08-05T15:07:05;2.33;;;1.53;;
10277;SDS011;5184;51.376;7.148;2022-08-05T15:09:32;2.83;;;1.50;;
10277;SDS011;5184;51.376;7.148;2022-08-05T15:11:59;1.80;;;1.27;;